createdAt,value
2018-11-07T00:00:37.286Z,45.37
2018-11-07T00:03:06.159Z,45.63
2018-11-07T00:05:34.817Z,44.77
2018-11-07T00:08:03.557Z,43.57
2018-11-07T00:10:31.978Z,44.77
2018-11-07T00:13:00.482Z,45.20
2018-11-07T00:15:29.019Z,46.10
2018-11-07T00:17:57.619Z,43.67
2018-11-07T00:20:26.558Z,42.23
2018-11-07T00:22:55.197Z,44.87
2018-11-07T00:25:23.735Z,44.73
2018-11-07T00:27:52.311Z,45.53
2018-11-07T00:30:20.948Z,46.87
2018-11-07T00:32:49.448Z,44.90
2018-11-07T00:35:18.128Z,43.77
2018-11-07T00:37:46.631Z,47.13
2018-11-07T00:40:15.378Z,45.50
2018-11-07T00:42:43.921Z,45.47
2018-11-07T00:45:13.407Z,44.50
2018-11-07T00:47:42.422Z,44.70
2018-11-07T00:50:14.897Z,45.60
2018-11-07T00:52:44.115Z,44.80
2018-11-07T00:55:13.393Z,44.70
2018-11-07T00:57:42.380Z,45.17
2018-11-07T01:00:14.071Z,44.63
2018-11-07T01:02:42.600Z,43.53
2018-11-07T01:05:12.619Z,43.20
2018-11-07T01:07:42.041Z,42.33
2018-11-07T01:10:10.923Z,40.70
2018-11-07T01:12:40.011Z,41.43
2018-11-07T01:15:09.532Z,39.87
2018-11-07T01:17:38.090Z,38.17
2018-11-07T01:20:08.106Z,38.43
2018-11-07T01:22:36.703Z,38.43
2018-11-07T01:25:06.703Z,38.97
2018-11-07T01:27:35.467Z,38.77
2018-11-07T01:30:05.096Z,38.30
2018-11-07T01:32:33.704Z,38.60
2018-11-07T01:35:02.230Z,37.93
2018-11-07T01:37:30.776Z,37.03
2018-11-07T01:39:59.294Z,38.13
2018-11-07T01:42:27.854Z,38.17
2018-11-07T01:44:56.456Z,38.93
2018-11-07T01:47:25.035Z,38.23
2018-11-07T01:49:53.782Z,38.10
2018-11-07T01:52:22.299Z,39.10
2018-11-07T01:54:50.811Z,38.17
2018-11-07T01:57:19.365Z,37.73
2018-11-07T01:59:47.870Z,37.23
2018-11-07T02:02:16.582Z,37.63
2018-11-07T02:04:45.158Z,36.67
2018-11-07T02:07:13.685Z,36.17
2018-11-07T02:09:42.887Z,35.70
2018-11-07T02:12:11.416Z,36.27
2018-11-07T02:14:39.961Z,36.57
2018-11-07T02:17:08.497Z,37.20
2018-11-07T02:19:37.194Z,36.83
2018-11-07T02:22:06.200Z,35.70
2018-11-07T02:24:34.759Z,35.80
2018-11-07T02:27:03.322Z,35.73
2018-11-07T02:29:32.043Z,36.33
2018-11-07T02:32:00.566Z,37.17
2018-11-07T02:34:29.118Z,35.77
2018-11-07T02:36:57.737Z,35.97
2018-11-07T02:39:26.211Z,35.17
2018-11-07T02:41:54.786Z,34.93
2018-11-07T02:44:23.334Z,34.50
2018-11-07T02:46:51.924Z,35.27
2018-11-07T02:49:20.484Z,34.57
2018-11-07T02:51:49.037Z,33.67
2018-11-07T02:54:17.567Z,35.10
2018-11-07T02:56:46.097Z,35.10
2018-11-07T02:59:14.661Z,34.30
2018-11-07T03:01:43.727Z,35.70
2018-11-07T03:04:12.390Z,33.20
2018-11-07T03:06:40.942Z,34.43
2018-11-07T03:09:10.250Z,34.10
2018-11-07T03:11:38.833Z,35.60
2018-11-07T03:14:08.049Z,33.47
2018-11-07T03:16:36.927Z,34.13
2018-11-07T03:19:06.127Z,34.50
2018-11-07T03:21:34.680Z,35.47
2018-11-07T03:24:03.223Z,33.13
2018-11-07T03:26:31.751Z,34.00
2018-11-07T03:29:00.433Z,34.40
2018-11-07T03:31:29.039Z,33.07
2018-11-07T03:33:57.630Z,33.60
2018-11-07T03:36:26.170Z,33.33
2018-11-07T03:38:54.742Z,34.63
2018-11-07T03:41:23.329Z,34.13
2018-11-07T03:43:51.871Z,35.60
2018-11-07T03:46:20.487Z,35.00
2018-11-07T03:48:49.211Z,34.53
2018-11-07T03:51:17.765Z,33.27
2018-11-07T03:53:46.300Z,33.20
2018-11-07T03:56:14.828Z,32.30
2018-11-07T03:58:43.360Z,33.33
2018-11-07T04:01:11.913Z,32.57
2018-11-07T04:03:40.442Z,31.93
2018-11-07T04:06:08.970Z,31.37
2018-11-07T04:08:37.513Z,32.77
2018-11-07T04:11:06.188Z,31.80
2018-11-07T04:13:34.978Z,32.37
2018-11-07T04:16:03.546Z,31.73
2018-11-07T04:18:32.098Z,32.57
2018-11-07T04:21:00.642Z,31.57
2018-11-07T04:23:29.219Z,32.37
2018-11-07T04:25:58.044Z,31.27
2018-11-07T04:28:26.587Z,30.47
2018-11-07T04:30:55.115Z,30.53
2018-11-07T04:33:23.666Z,29.53
2018-11-07T04:35:52.218Z,30.40
2018-11-07T04:38:20.875Z,29.97
2018-11-07T04:40:49.746Z,29.13
2018-11-07T04:43:18.299Z,28.17
2018-11-07T04:45:46.845Z,28.73
2018-11-07T04:48:15.385Z,29.57
2018-11-07T04:50:43.915Z,27.33
2018-11-07T04:53:12.439Z,26.90
2018-11-07T04:55:40.990Z,28.00
2018-11-07T04:58:09.560Z,27.60
2018-11-07T05:00:38.108Z,28.00
2018-11-07T05:03:07.057Z,29.93
2018-11-07T05:05:35.834Z,29.77
2018-11-07T05:08:04.399Z,27.97
2018-11-07T05:10:32.943Z,28.40
2018-11-07T05:13:01.494Z,28.03
2018-11-07T05:15:30.030Z,28.80
2018-11-07T05:17:58.632Z,27.03
2018-11-07T05:20:27.282Z,28.17
2018-11-07T05:22:55.850Z,27.37
2018-11-07T05:25:24.380Z,28.93
2018-11-07T05:27:52.919Z,28.53
2018-11-07T05:30:21.538Z,28.40
2018-11-07T05:32:50.076Z,28.53
2018-11-07T05:35:18.646Z,28.70
2018-11-07T05:37:47.229Z,31.00
2018-11-07T05:40:15.834Z,30.63
2018-11-07T05:42:44.734Z,30.50
2018-11-07T05:45:13.295Z,30.93
2018-11-07T05:47:41.844Z,29.97
2018-11-07T05:50:11.015Z,31.10
2018-11-07T05:52:40.023Z,30.13
2018-11-07T05:55:09.345Z,31.50
2018-11-07T05:57:37.918Z,32.77
2018-11-07T06:00:08.146Z,32.10
2018-11-07T06:02:36.702Z,32.07
2018-11-07T06:05:06.645Z,30.77
2018-11-07T06:07:35.500Z,30.67
2018-11-07T06:10:04.542Z,31.43
2018-11-07T06:12:33.069Z,30.77
2018-11-07T06:15:01.628Z,29.97
2018-11-07T06:17:30.224Z,30.40
2018-11-07T06:19:58.767Z,29.67
2018-11-07T06:22:27.287Z,29.23
2018-11-07T06:24:55.997Z,28.63
2018-11-07T06:27:24.510Z,30.30
2018-11-07T06:29:53.052Z,29.50
2018-11-07T06:32:21.612Z,30.00
2018-11-07T06:34:50.575Z,30.07
2018-11-07T06:37:19.432Z,30.50
2018-11-07T06:39:47.959Z,29.93
2018-11-07T06:42:17.445Z,30.70
2018-11-07T06:44:46.856Z,29.10
2018-11-07T06:47:16.720Z,29.53
2018-11-07T06:49:45.896Z,28.57
2018-11-07T06:52:14.816Z,30.50
2018-11-07T06:54:43.452Z,29.57
2018-11-07T06:57:12.039Z,29.40
2018-11-07T06:59:40.600Z,28.93
2018-11-07T07:02:09.184Z,28.93
2018-11-07T07:04:38.626Z,29.40
2018-11-07T07:07:07.239Z,29.73
2018-11-07T07:09:35.851Z,28.67
2018-11-07T07:12:04.646Z,28.97
2018-11-07T07:14:33.190Z,29.17
2018-11-07T07:17:01.755Z,28.67
2018-11-07T07:19:30.300Z,29.33
2018-11-07T07:21:58.860Z,30.13
2018-11-07T07:24:27.439Z,30.27
2018-11-07T07:26:55.995Z,30.20
2018-11-07T07:29:24.493Z,29.73
2018-11-07T07:31:53.105Z,29.43
2018-11-07T07:34:21.907Z,30.40
2018-11-07T07:36:50.457Z,30.00
2018-11-07T07:39:18.997Z,30.00
2018-11-07T07:41:47.650Z,29.37
2018-11-07T07:44:16.268Z,30.50
2018-11-07T07:46:44.824Z,30.50
2018-11-07T07:49:13.416Z,28.83
2018-11-07T07:51:41.886Z,29.40
2018-11-07T07:54:10.520Z,28.83
2018-11-07T07:56:39.047Z,28.70
2018-11-07T07:59:07.643Z,28.73
2018-11-07T08:01:36.210Z,28.80
2018-11-07T08:04:05.120Z,28.93
2018-11-07T08:06:35.848Z,29.10
2018-11-07T08:09:06.983Z,28.13
2018-11-07T08:11:35.546Z,29.17
2018-11-07T08:14:04.188Z,28.43
2018-11-07T08:16:32.682Z,27.77
2018-11-07T08:19:01.222Z,28.00
2018-11-07T08:21:29.830Z,29.00
2018-11-07T08:23:58.367Z,27.20
2018-11-07T08:26:26.884Z,27.73
2018-11-07T08:28:55.443Z,27.33
2018-11-07T08:31:23.968Z,27.37
2018-11-07T08:33:52.516Z,28.33
2018-11-07T08:36:21.172Z,26.93
2018-11-07T08:38:49.706Z,27.50
2018-11-07T08:41:18.259Z,25.83
2018-11-07T08:43:47.251Z,27.93
2018-11-07T08:46:15.806Z,27.40
2018-11-07T08:48:44.455Z,27.03
2018-11-07T08:51:13.009Z,26.93
2018-11-07T08:53:41.544Z,27.83
2018-11-07T08:56:10.085Z,28.17
2018-11-07T08:58:38.605Z,28.47
2018-11-07T09:01:07.172Z,28.70
2018-11-07T09:03:35.731Z,28.03
2018-11-07T09:06:04.298Z,28.93
2018-11-07T09:08:32.825Z,29.07
2018-11-07T09:11:01.348Z,30.27
2018-11-07T09:13:29.933Z,29.63
2018-11-07T09:15:58.501Z,29.57
2018-11-07T09:18:26.998Z,29.77
2018-11-07T09:20:55.588Z,29.43
2018-11-07T09:23:24.147Z,29.47
2018-11-07T09:25:52.690Z,29.40
2018-11-07T09:28:21.231Z,29.20
2018-11-07T09:30:49.777Z,29.13
2018-11-07T09:33:18.328Z,28.67
2018-11-07T09:35:47.395Z,29.00
2018-11-07T09:38:15.968Z,29.70
2018-11-07T09:40:44.535Z,28.30
2018-11-07T09:43:13.082Z,29.10
2018-11-07T09:45:41.611Z,27.93
2018-11-07T09:48:10.208Z,28.07
2018-11-07T09:50:38.728Z,28.37
2018-11-07T09:53:07.296Z,28.40
2018-11-07T09:55:35.899Z,27.87
2018-11-07T09:58:04.464Z,27.70
2018-11-07T10:00:33.096Z,27.60
2018-11-07T10:03:01.644Z,27.70
2018-11-07T10:05:30.215Z,27.20
2018-11-07T10:07:58.763Z,27.63
2018-11-07T10:10:27.417Z,28.57
2018-11-07T10:12:55.987Z,27.93
2018-11-07T10:15:24.532Z,27.27
2018-11-07T10:17:53.066Z,28.20
2018-11-07T10:20:23.050Z,28.57
2018-11-07T10:22:51.749Z,28.70
2018-11-07T10:25:20.623Z,28.50
2018-11-07T10:27:49.629Z,29.20
2018-11-07T10:30:19.205Z,28.70
2018-11-07T10:32:48.760Z,28.43
2018-11-07T10:35:17.360Z,27.73
2018-11-07T10:37:45.982Z,27.97
2018-11-07T10:40:17.356Z,27.37
2018-11-07T10:42:46.605Z,27.43
2018-11-07T10:45:15.199Z,27.63
2018-11-07T10:47:44.957Z,28.17
2018-11-07T10:50:14.549Z,26.40
2018-11-07T10:52:43.936Z,28.10
2018-11-07T10:55:13.354Z,27.30
2018-11-07T10:57:41.942Z,26.97
2018-11-07T11:01:16.368Z,26.80
2018-11-07T11:03:45.107Z,26.80
2018-11-07T11:06:13.655Z,26.93
2018-11-07T11:08:42.207Z,26.27
2018-11-07T11:11:10.840Z,26.53
2018-11-07T11:13:39.720Z,27.47
2018-11-07T11:16:08.276Z,26.97
2018-11-07T11:18:36.797Z,27.37
2018-11-07T11:21:05.503Z,26.47
2018-11-07T11:23:34.063Z,26.53
2018-11-07T11:26:02.588Z,26.20
2018-11-07T11:28:31.139Z,26.97
2018-11-07T11:31:01.657Z,25.73
2018-11-07T11:33:30.234Z,25.80
2018-11-07T11:35:58.749Z,25.70
2018-11-07T11:38:27.295Z,25.93
2018-11-07T11:40:55.986Z,26.37
2018-11-07T11:43:24.721Z,26.23
2018-11-07T11:45:53.487Z,26.17
2018-11-07T11:48:22.207Z,26.13
2018-11-07T11:50:50.758Z,25.53
2018-11-07T11:53:19.286Z,26.67
2018-11-07T11:55:48.061Z,26.33
2018-11-07T11:58:23.253Z,26.80
2018-11-07T12:00:51.847Z,26.57
2018-11-07T12:03:20.456Z,27.33
2018-11-07T12:05:49.560Z,27.27
2018-11-07T12:08:18.211Z,27.23
2018-11-07T12:10:46.734Z,26.80
2018-11-07T12:13:15.364Z,27.23
2018-11-07T12:15:43.904Z,26.43
2018-11-07T12:18:12.474Z,27.50
2018-11-07T12:20:41.046Z,27.03
2018-11-07T12:23:09.659Z,26.30
2018-11-07T12:25:38.245Z,26.43
2018-11-07T12:28:06.879Z,25.93
2018-11-07T12:30:35.454Z,26.90
2018-11-07T12:33:04.000Z,26.90
2018-11-07T12:35:32.550Z,25.93
2018-11-07T12:38:01.120Z,27.23
2018-11-07T12:40:29.641Z,27.90
2018-11-07T12:42:58.266Z,26.20
2018-11-07T12:45:26.753Z,26.53
2018-11-07T12:47:55.490Z,26.30
2018-11-07T12:50:24.785Z,27.10
2018-11-07T12:52:53.340Z,27.60
2018-11-07T12:55:22.454Z,27.13
2018-11-07T12:57:51.072Z,26.13
2018-11-07T13:00:25.676Z,27.57
2018-11-07T13:02:54.367Z,26.90
2018-11-07T13:05:23.740Z,26.03
2018-11-07T13:07:53.244Z,26.80
2018-11-07T13:10:22.442Z,26.17
2018-11-07T13:12:51.566Z,25.57
2018-11-07T13:15:20.149Z,26.80
2018-11-07T13:17:50.243Z,25.20
2018-11-07T13:20:20.249Z,25.67
2018-11-07T13:22:50.069Z,25.07
2018-11-07T13:25:18.984Z,24.47
2018-11-07T13:27:47.887Z,25.53
2018-11-07T13:30:17.758Z,24.97
2018-11-07T13:32:46.338Z,25.60
2018-11-07T13:35:15.645Z,25.23
2018-11-07T13:37:45.091Z,24.33
2018-11-07T13:40:15.605Z,25.90
2018-11-07T13:42:44.429Z,24.33
2018-11-07T13:45:14.905Z,24.00
2018-11-07T13:47:44.590Z,25.60
2018-11-07T13:50:13.891Z,25.07
2018-11-07T13:52:42.398Z,24.37
2018-11-07T13:55:12.014Z,24.90
2018-11-07T13:57:41.011Z,25.23
2018-11-07T14:00:11.649Z,26.47
2018-11-07T14:02:40.298Z,25.37
2018-11-07T14:05:09.859Z,25.00
2018-11-07T14:07:38.928Z,25.70
2018-11-07T14:10:10.476Z,25.77
2018-11-07T14:12:39.371Z,26.13
2018-11-07T14:15:10.114Z,25.93
2018-11-07T14:17:38.717Z,25.60
2018-11-07T14:20:07.671Z,25.83
2018-11-07T14:22:36.257Z,25.93
2018-11-07T14:25:05.055Z,25.97
2018-11-07T14:27:33.740Z,25.50
2018-11-07T14:30:02.772Z,25.83
2018-11-07T14:32:32.049Z,26.83
2018-11-07T14:35:00.622Z,26.17
2018-11-07T14:37:29.268Z,26.23
2018-11-07T14:39:57.807Z,26.17
2018-11-07T14:42:26.489Z,26.53
2018-11-07T14:44:55.068Z,26.97
2018-11-07T14:47:23.668Z,26.53
2018-11-07T14:49:52.359Z,26.73
2018-11-07T14:52:20.970Z,27.80
2018-11-07T14:54:49.628Z,27.13
2018-11-07T14:57:18.172Z,27.10
2018-11-07T14:59:46.775Z,27.67
2018-11-07T15:02:15.351Z,26.93
2018-11-07T15:04:43.981Z,27.23
2018-11-07T15:07:12.527Z,27.77
2018-11-07T15:09:41.063Z,28.13
2018-11-07T15:12:09.644Z,28.30
2018-11-07T15:14:38.176Z,27.93
2018-11-07T15:17:07.037Z,28.00
2018-11-07T15:19:35.574Z,27.83
2018-11-07T15:22:04.095Z,28.23
2018-11-07T15:24:32.665Z,28.70
2018-11-07T15:27:01.191Z,28.83
2018-11-07T15:29:29.717Z,28.07
2018-11-07T15:31:58.402Z,29.37
2018-11-07T15:34:26.945Z,28.93
2018-11-07T15:36:55.491Z,29.10
2018-11-07T15:39:24.048Z,29.43
2018-11-07T15:41:52.615Z,27.77
2018-11-07T15:44:21.193Z,28.00
2018-11-07T15:46:49.773Z,29.27
2018-11-07T15:49:18.321Z,28.60
2018-11-07T15:51:47.028Z,29.30
2018-11-07T15:54:15.566Z,29.07
2018-11-07T15:56:44.118Z,29.73
2018-11-07T15:59:12.656Z,28.47
2018-11-07T16:01:41.175Z,30.47
2018-11-07T16:04:09.797Z,29.33
2018-11-07T16:06:38.335Z,29.30
2018-11-07T16:09:08.923Z,30.10
2018-11-07T16:11:37.454Z,29.40
2018-11-07T16:14:06.058Z,31.00
2018-11-07T16:16:34.670Z,29.53
2018-11-07T16:19:03.206Z,30.13
2018-11-07T16:21:31.752Z,30.27
2018-11-07T16:24:00.347Z,31.23
2018-11-07T16:26:28.971Z,32.27
2018-11-07T16:28:57.497Z,30.13
2018-11-07T16:31:26.153Z,32.37
2018-11-07T16:33:54.677Z,29.67
2018-11-07T16:36:23.248Z,32.13
2018-11-07T16:38:51.813Z,31.37
2018-11-07T16:41:20.408Z,32.53
2018-11-07T16:43:49.324Z,32.20
2018-11-07T16:46:17.974Z,31.30
2018-11-07T16:48:46.495Z,31.80
2018-11-07T16:51:15.103Z,32.97
2018-11-07T16:53:43.662Z,32.90
2018-11-07T16:56:12.259Z,32.50
2018-11-07T16:58:40.836Z,33.90
2018-11-07T17:01:09.442Z,32.67
2018-11-07T17:03:38.056Z,32.67
2018-11-07T17:06:06.623Z,33.03
2018-11-07T17:08:35.247Z,35.10
2018-11-07T17:11:03.853Z,35.20
2018-11-07T17:13:32.407Z,35.27
2018-11-07T17:16:00.983Z,34.80
2018-11-07T17:18:29.534Z,36.13
2018-11-07T17:20:58.091Z,36.90
2018-11-07T17:23:26.708Z,37.17
2018-11-07T17:25:55.300Z,36.40
2018-11-07T17:28:23.877Z,38.17
2018-11-07T17:30:52.424Z,37.47
2018-11-07T17:33:20.983Z,38.70
2018-11-07T17:35:49.620Z,39.43
2018-11-07T17:38:18.286Z,39.93
2018-11-07T17:40:46.784Z,40.00
2018-11-07T17:43:15.354Z,40.67
2018-11-07T17:45:43.941Z,41.40
2018-11-07T17:48:12.563Z,40.53
2018-11-07T17:50:41.144Z,41.77
2018-11-07T17:53:09.737Z,41.17
2018-11-07T17:55:38.347Z,41.53
2018-11-07T17:58:06.965Z,42.57
2018-11-07T18:00:35.896Z,41.77
2018-11-07T18:03:04.829Z,42.17
2018-11-07T18:05:33.414Z,44.47
2018-11-07T18:08:02.077Z,42.53
2018-11-07T18:10:30.763Z,41.77
2018-11-07T18:13:00.276Z,42.73
2018-11-07T18:15:28.856Z,44.03
2018-11-07T18:17:57.504Z,41.50
2018-11-07T18:20:26.132Z,42.87
2018-11-07T18:22:54.771Z,40.67
2018-11-07T18:25:23.378Z,44.83
2018-11-07T18:27:52.156Z,43.40
2018-11-07T18:30:20.843Z,44.57
2018-11-07T18:32:49.419Z,46.07
2018-11-07T18:35:19.257Z,46.17
2018-11-07T18:37:47.950Z,44.50
2018-11-07T18:40:17.887Z,45.07
2018-11-07T18:42:46.468Z,46.60
2018-11-07T18:45:15.385Z,45.50
2018-11-07T18:47:45.190Z,46.77
2018-11-07T18:50:15.316Z,46.33
2018-11-07T18:52:50.615Z,44.77
2018-11-07T18:55:19.298Z,47.60
2018-11-07T18:57:47.994Z,47.30
2018-11-07T19:00:18.056Z,46.43
2018-11-07T19:02:47.236Z,48.47
2018-11-07T19:05:15.872Z,48.83
2018-11-07T19:07:44.858Z,47.13
2018-11-07T19:10:16.761Z,47.33
2018-11-07T19:12:46.618Z,45.73
2018-11-07T19:15:15.977Z,48.43
2018-11-07T19:17:45.628Z,50.77
2018-11-07T19:20:15.124Z,49.47
2018-11-07T19:22:43.851Z,48.33
2018-11-07T19:25:15.013Z,49.80
2018-11-07T19:27:43.557Z,53.50
2018-11-07T19:30:21.597Z,54.87
2018-11-07T19:32:51.311Z,50.23
2018-11-07T19:35:20.447Z,51.33
2018-11-07T19:37:49.620Z,53.20
2018-11-07T19:40:19.971Z,51.87
2018-11-07T19:42:48.548Z,54.37
2018-11-07T19:45:18.352Z,51.63
2018-11-07T19:47:47.032Z,51.90
2018-11-07T19:50:16.846Z,50.73
2018-11-07T19:52:46.569Z,54.53
2018-11-07T19:55:16.919Z,54.07
2018-11-07T19:57:47.560Z,54.77
2018-11-07T20:00:17.049Z,55.30
2018-11-07T20:02:46.541Z,53.00
2018-11-07T20:05:15.614Z,53.50
2018-11-07T20:07:44.353Z,50.87
2018-11-07T20:10:14.951Z,54.37
2018-11-07T20:12:43.837Z,54.20
2018-11-07T20:15:13.664Z,53.20
2018-11-07T20:17:42.469Z,53.90
2018-11-07T20:20:11.781Z,54.57
2018-11-07T20:22:40.615Z,57.07
2018-11-07T20:25:10.372Z,59.73
2018-11-07T20:27:38.985Z,57.53
2018-11-07T20:30:10.215Z,54.67
2018-11-07T20:32:39.214Z,53.77
2018-11-07T20:35:09.967Z,54.13
2018-11-07T20:37:38.640Z,53.23
2018-11-07T20:40:11.520Z,54.90
2018-11-07T20:42:40.200Z,56.67
2018-11-07T20:45:09.842Z,62.47
2018-11-07T20:47:38.780Z,64.17
2018-11-07T20:50:10.165Z,57.20
2018-11-07T20:52:39.237Z,75.37
2018-11-07T20:55:08.258Z,90.73
2018-11-07T20:57:37.204Z,76.53
2018-11-07T21:00:09.676Z,93.43
2018-11-07T21:02:38.675Z,79.93
2018-11-07T21:05:07.897Z,76.70
2018-11-07T21:07:36.814Z,75.40
2018-11-07T21:10:07.206Z,78.80
2018-11-07T21:12:35.966Z,63.27
2018-11-07T21:15:04.847Z,81.33
2018-11-07T21:17:33.487Z,56.97
2018-11-07T21:20:02.107Z,48.47
2018-11-07T21:22:30.688Z,45.70
2018-11-07T21:24:59.336Z,45.57
2018-11-07T21:27:27.942Z,46.93
2018-11-07T21:29:56.585Z,42.23
2018-11-07T21:32:25.396Z,45.43
2018-11-07T21:34:54.068Z,61.97
2018-11-07T21:37:22.869Z,61.67
2018-11-07T21:39:51.442Z,40.87
2018-11-07T21:42:20.015Z,68.73
2018-11-07T21:44:49.126Z,39.37
2018-11-07T21:47:17.888Z,41.83
2018-11-07T21:49:46.476Z,70.23
2018-11-07T21:52:15.038Z,68.67
2018-11-07T21:54:43.641Z,63.90
2018-11-07T21:57:12.190Z,57.20
2018-11-07T21:59:40.739Z,58.50
2018-11-07T22:02:09.306Z,48.20
2018-11-07T22:04:37.869Z,34.63
2018-11-07T22:07:06.746Z,37.97
2018-11-07T22:09:35.310Z,52.63
2018-11-07T22:12:04.009Z,38.53
2018-11-07T22:14:32.552Z,47.57
2018-11-07T22:17:01.145Z,39.33
2018-11-07T22:19:29.718Z,36.33
2018-11-07T22:21:58.258Z,34.53
2018-11-07T22:24:26.873Z,47.90
2018-11-07T22:26:55.408Z,34.37
2018-11-07T22:29:23.957Z,31.33
2018-11-07T22:31:53.407Z,32.57
2018-11-07T22:34:21.992Z,31.77
2018-11-07T22:36:50.613Z,32.37
2018-11-07T22:39:19.160Z,36.07
2018-11-07T22:41:55.011Z,30.80
2018-11-07T22:44:23.576Z,46.63
2018-11-07T22:46:52.132Z,39.60
2018-11-07T22:49:20.668Z,29.40
2018-11-07T22:51:49.216Z,28.83
2018-11-07T22:54:17.781Z,28.40
2018-11-07T22:56:46.335Z,29.90
2018-11-07T22:59:14.895Z,26.87
2018-11-07T23:01:43.451Z,29.90
2018-11-07T23:04:12.011Z,30.90
2018-11-07T23:06:40.805Z,29.13
2018-11-07T23:09:14.107Z,27.37
2018-11-07T23:11:43.881Z,46.17
2018-11-07T23:14:13.646Z,35.73
2018-11-07T23:16:42.735Z,36.93
2018-11-07T23:19:11.869Z,41.17
2018-11-07T23:21:40.415Z,36.93
2018-11-07T23:24:09.310Z,41.97
2018-11-07T23:26:37.876Z,45.73
2018-11-07T23:29:06.435Z,41.10
2018-11-07T23:31:35.060Z,48.33
2018-11-07T23:34:03.615Z,48.37
2018-11-07T23:36:32.171Z,32.53
2018-11-07T23:39:00.733Z,27.33
2018-11-07T23:41:29.320Z,40.43
2018-11-07T23:43:57.872Z,35.40
2018-11-07T23:46:26.477Z,49.67
2018-11-07T23:48:54.999Z,52.77
2018-11-07T23:51:23.528Z,50.17
2018-11-07T23:53:52.072Z,51.47
2018-11-07T23:56:20.642Z,51.43
2018-11-07T23:58:49.479Z,28.53
